Sari, Iran
Current Conditions -  °F | °C
As of 12:00 AM on Saturday 20 Dec 2014 (Local Time) from OINZ Reporting Station
Clear Clear  
Wind Chill: 46°   Ceiling: Unl
Heat Index: 48°   Visibility: 6mi
Dew Point: 48°   Wind: 5mph
Humidity: 100%   Direction: 180°S
Pressure: 30.09"   Gusts: NA
Location:  36.57°N, 53.06°E
Report Text: OINZ 192100Z 18004KT CAVOK 09/09 Q1019
Loading
Personal Weather Stations






























Interactive Weather Map New forecast layout! Learn more

10-Day Weather Forecast

Advertisements
Track Severe Weather on mobile